createdAt,value
2022-12-01T00:02:00.714Z,82.18
2022-12-01T00:04:27.627Z,82.22
2022-12-01T00:06:54.384Z,82.03
2022-12-01T00:09:39.830Z,82.45
2022-12-01T00:12:07.098Z,83.10
2022-12-01T00:14:33.875Z,80.90
2022-12-01T00:17:02.081Z,83.10
2022-12-01T00:19:28.932Z,81.95
2022-12-01T00:21:55.748Z,82.07
2022-12-01T00:24:23.594Z,81.82
2022-12-01T00:26:50.392Z,81.75
2022-12-01T00:29:17.179Z,81.10
2022-12-01T00:31:44.040Z,81.43
2022-12-01T00:34:22.689Z,80.65
2022-12-01T00:36:49.803Z,82.00
2022-12-01T00:39:16.755Z,83.03
2022-12-01T00:41:43.557Z,81.65
2022-12-01T00:44:10.951Z,82.05
2022-12-01T00:46:37.739Z,81.13
2022-12-01T00:49:04.568Z,81.30
2022-12-01T00:51:32.909Z,81.57
2022-12-01T00:53:59.939Z,82.13
2022-12-01T00:56:26.839Z,80.95
2022-12-01T00:58:53.621Z,80.55
2022-12-01T01:01:20.733Z,81.88
2022-12-01T01:03:47.937Z,81.15
2022-12-01T01:06:14.753Z,81.88
2022-12-01T01:08:42.892Z,80.07
2022-12-01T01:11:09.929Z,81.03
2022-12-01T01:13:37.408Z,80.38
2022-12-01T01:16:07.123Z,80.45
2022-12-01T01:18:34.507Z,83.03
2022-12-01T01:21:04.467Z,80.78
2022-12-01T01:23:31.333Z,81.25
2022-12-01T01:26:04.052Z,80.45
2022-12-01T01:28:31.383Z,80.57
2022-12-01T01:30:58.389Z,80.55
2022-12-01T01:33:25.359Z,79.80
2022-12-01T01:35:52.147Z,80.38
2022-12-01T01:38:18.968Z,80.28
2022-12-01T01:40:46.506Z,80.40
2022-12-01T01:43:17.639Z,80.22
2022-12-01T01:45:44.722Z,79.93
2022-12-01T01:48:13.688Z,80.45
2022-12-01T01:50:41.033Z,80.07
2022-12-01T01:53:12.835Z,79.93
2022-12-01T01:58:09.331Z,80.90
2022-12-01T02:00:39.334Z,80.18
2022-12-01T02:03:08.042Z,80.28
2022-12-01T02:05:37.101Z,80.90
2022-12-01T02:08:04.817Z,80.35
2022-12-01T02:10:46.191Z,80.28
2022-12-01T02:13:25.455Z,82.47
2022-12-01T02:16:04.153Z,79.43
2022-12-01T02:18:38.990Z,80.72
2022-12-01T02:21:31.548Z,80.10
2022-12-01T02:24:25.398Z,80.05
2022-12-01T02:26:59.781Z,80.95
2022-12-01T02:30:06.585Z,80.32
2022-12-01T02:32:57.403Z,79.93
2022-12-01T02:38:04.764Z,79.40
2022-12-01T02:40:37.839Z,79.95
2022-12-01T02:43:12.496Z,81.03
2022-12-01T02:45:45.353Z,80.75
2022-12-01T02:48:19.226Z,81.03
2022-12-01T02:50:46.718Z,79.53
2022-12-01T02:53:17.303Z,80.35
2022-12-01T02:55:48.916Z,80.20
2022-12-01T02:58:16.016Z,79.97
2022-12-01T03:00:56.596Z,81.25
2022-12-01T03:03:36.188Z,80.13
2022-12-01T03:06:08.526Z,80.00
2022-12-01T03:08:47.991Z,79.53
2022-12-01T03:11:27.255Z,80.07
2022-12-01T03:14:08.693Z,80.18
2022-12-01T03:16:46.603Z,80.07
2022-12-01T03:19:20.096Z,79.78
2022-12-01T03:21:55.492Z,79.47
2022-12-01T03:24:26.378Z,79.93
2022-12-01T03:26:57.125Z,79.82
2022-12-01T03:29:28.017Z,80.18
2022-12-01T03:32:00.641Z,79.97
2022-12-01T03:34:35.717Z,79.95
2022-12-01T03:37:07.042Z,80.63
2022-12-01T03:39:38.532Z,79.32
2022-12-01T03:44:42.073Z,81.40
2022-12-01T03:47:13.000Z,80.40
2022-12-01T03:49:42.875Z,80.47
2022-12-01T03:52:19.388Z,80.32
2022-12-01T03:54:54.012Z,80.10
2022-12-01T03:57:27.006Z,80.30
2022-12-01T03:59:54.559Z,79.85
2022-12-01T04:02:21.595Z,79.72
2022-12-01T04:04:49.856Z,79.88
2022-12-01T04:07:16.667Z,80.35
2022-12-01T04:09:43.493Z,80.32
2022-12-01T04:12:32.852Z,80.72
2022-12-01T04:15:01.123Z,79.80
2022-12-01T04:17:28.556Z,80.32
2022-12-01T04:19:57.165Z,80.20
2022-12-01T04:22:24.508Z,79.55
2022-12-01T04:24:52.317Z,79.03
2022-12-01T04:27:19.848Z,81.05
2022-12-01T04:29:47.157Z,79.40
2022-12-01T04:32:14.879Z,79.22
2022-12-01T04:34:41.923Z,80.45
2022-12-01T04:37:10.348Z,79.07
2022-12-01T04:39:37.223Z,79.32
2022-12-01T04:42:04.852Z,79.10
2022-12-01T04:44:34.933Z,80.10
2022-12-01T04:47:02.470Z,79.57
2022-12-01T04:49:29.621Z,79.18
2022-12-01T04:51:56.466Z,79.53
2022-12-01T04:54:25.057Z,79.10
2022-12-01T04:56:51.861Z,79.68
2022-12-01T04:59:18.709Z,79.88
2022-12-01T05:01:48.042Z,80.03
2022-12-01T05:04:15.471Z,79.20
2022-12-01T05:06:43.028Z,79.90
2022-12-01T05:09:17.554Z,80.20
2022-12-01T05:11:46.148Z,79.97
2022-12-01T05:14:12.949Z,79.55
2022-12-01T05:16:39.986Z,79.65
2022-12-01T05:19:25.619Z,79.65
2022-12-01T05:21:52.600Z,79.43
2022-12-01T05:24:20.513Z,79.32
2022-12-01T05:26:48.744Z,79.05
2022-12-01T05:29:15.673Z,79.25
2022-12-01T05:31:42.655Z,79.25
2022-12-01T05:34:09.790Z,79.38
2022-12-01T05:36:37.043Z,79.93
2022-12-01T05:39:03.941Z,80.85
2022-12-01T05:41:30.805Z,79.53
2022-12-01T05:43:58.945Z,79.22
2022-12-01T05:46:25.867Z,79.68
2022-12-01T05:48:52.762Z,80.72
2022-12-01T05:51:19.618Z,81.07
2022-12-01T05:53:46.783Z,80.32
2022-12-01T05:56:13.622Z,79.30
2022-12-01T05:58:40.670Z,79.90
2022-12-01T06:01:08.883Z,78.88
2022-12-01T06:03:35.748Z,79.53
2022-12-01T06:06:02.748Z,79.63
2022-12-01T06:08:29.550Z,79.72
2022-12-01T06:10:56.308Z,80.30
2022-12-01T06:13:23.191Z,79.82
2022-12-01T06:15:57.529Z,80.07
2022-12-01T06:18:26.815Z,81.15
2022-12-01T06:20:53.634Z,79.32
2022-12-01T06:23:20.513Z,79.68
2022-12-01T06:25:47.333Z,79.95
2022-12-01T06:28:14.264Z,80.15
2022-12-01T06:30:41.223Z,79.28
2022-12-01T06:33:08.175Z,78.90
2022-12-01T06:35:36.774Z,79.95
2022-12-01T06:38:04.431Z,81.22
2022-12-01T06:40:31.518Z,79.63
2022-12-01T06:43:01.249Z,80.10
2022-12-01T06:45:28.458Z,80.88
2022-12-01T06:47:55.500Z,80.32
2022-12-01T06:50:22.631Z,79.78
2022-12-01T06:52:52.729Z,80.25
2022-12-01T06:55:19.805Z,80.28
2022-12-01T06:57:46.855Z,79.75
2022-12-01T07:00:21.550Z,80.38
2022-12-01T07:02:48.754Z,80.18
2022-12-01T07:05:15.766Z,80.50
2022-12-01T07:07:42.837Z,80.38
2022-12-01T07:10:12.713Z,79.63
2022-12-01T07:12:39.801Z,80.72
2022-12-01T07:15:08.378Z,80.85
2022-12-01T07:17:35.896Z,82.53
2022-12-01T07:20:04.053Z,82.65
2022-12-01T07:22:32.869Z,80.95
2022-12-01T07:24:59.865Z,81.18
2022-12-01T07:27:30.800Z,80.47
2022-12-01T07:29:57.649Z,81.35
2022-12-01T07:32:24.466Z,80.80
2022-12-01T07:34:51.307Z,81.20
2022-12-01T07:37:18.124Z,80.78
2022-12-01T07:39:47.144Z,80.13
2022-12-01T07:42:14.300Z,80.70
2022-12-01T07:44:42.469Z,82.43
2022-12-01T07:47:09.260Z,82.72
2022-12-01T07:49:36.120Z,81.93
2022-12-01T07:52:02.948Z,81.80
2022-12-01T07:54:32.415Z,83.35
2022-12-01T07:56:59.293Z,82.43
2022-12-01T07:59:26.422Z,82.40
2022-12-01T08:01:54.610Z,82.07
2022-12-01T08:04:21.580Z,82.55
2022-12-01T08:06:48.379Z,82.05
2022-12-01T08:09:15.203Z,81.75
2022-12-01T08:11:42.029Z,81.75
2022-12-01T08:14:08.918Z,81.88
2022-12-01T08:16:36.043Z,83.53
2022-12-01T08:19:04.479Z,82.55
2022-12-01T08:21:31.319Z,82.63
2022-12-01T08:23:58.683Z,83.53
2022-12-01T08:26:26.910Z,84.30
2022-12-01T08:28:53.723Z,83.68
2022-12-01T08:31:23.075Z,83.28
2022-12-01T08:33:51.033Z,83.18
2022-12-01T08:36:20.639Z,84.43
2022-12-01T08:38:50.588Z,84.85
2022-12-01T08:41:18.159Z,83.28
2022-12-01T08:44:01.463Z,82.55
2022-12-01T08:46:34.254Z,83.93
2022-12-01T08:49:02.112Z,84.03
2022-12-01T08:51:30.589Z,82.90
2022-12-01T08:53:58.834Z,82.32
2022-12-01T08:56:28.023Z,83.13
2022-12-01T08:58:55.032Z,84.00
2022-12-01T09:01:22.567Z,83.35
2022-12-01T09:04:05.048Z,84.30
2022-12-01T09:06:34.835Z,83.72
2022-12-01T09:09:01.925Z,84.32
2022-12-01T09:11:29.000Z,83.57
2022-12-01T09:13:55.761Z,82.63
2022-12-01T09:16:22.677Z,83.82
2022-12-01T09:18:49.544Z,83.88
2022-12-01T09:21:18.472Z,82.32
2022-12-01T09:23:46.968Z,82.43
2022-12-01T09:26:18.467Z,85.32
2022-12-01T09:28:46.102Z,82.88
2022-12-01T09:31:14.335Z,82.07
2022-12-01T09:33:41.223Z,82.68
2022-12-01T09:36:09.427Z,82.38
2022-12-01T09:38:37.265Z,84.00
2022-12-01T09:41:09.322Z,82.65
2022-12-01T09:43:41.139Z,83.90
2022-12-01T09:46:14.242Z,82.97
2022-12-01T09:48:43.445Z,83.00
2022-12-01T09:51:14.513Z,82.72
2022-12-01T09:53:42.621Z,82.53
2022-12-01T09:56:20.235Z,82.40
2022-12-01T09:58:50.765Z,83.82
2022-12-01T10:01:23.008Z,83.35
2022-12-01T10:03:57.819Z,83.15
2022-12-01T10:06:31.550Z,84.70
2022-12-01T10:09:11.688Z,83.72
2022-12-01T10:11:42.430Z,83.97
2022-12-01T10:14:19.413Z,84.00
2022-12-01T10:17:07.373Z,82.70
2022-12-01T10:19:40.104Z,83.65
2022-12-01T10:22:28.312Z,83.30
2022-12-01T10:25:01.336Z,84.07
2022-12-01T10:27:42.864Z,84.55
2022-12-01T10:30:15.535Z,83.95
2022-12-01T10:32:51.322Z,83.65
2022-12-01T10:35:19.770Z,84.35
2022-12-01T10:37:50.219Z,84.75
2022-12-01T10:40:18.188Z,85.03
2022-12-01T10:42:48.074Z,84.05
2022-12-01T10:45:18.454Z,83.03
2022-12-01T10:48:07.960Z,84.77
2022-12-01T10:50:35.875Z,83.10
2022-12-01T10:53:03.034Z,83.22
2022-12-01T10:55:33.241Z,83.68
2022-12-01T10:58:09.215Z,82.40
2022-12-01T11:00:59.243Z,84.78
2022-12-01T11:03:30.641Z,84.90
2022-12-01T11:06:00.746Z,85.38
2022-12-01T11:08:36.139Z,83.80
2022-12-01T11:11:03.737Z,87.07
2022-12-01T11:13:35.410Z,84.78
2022-12-01T11:16:04.748Z,83.63
2022-12-01T11:18:34.048Z,83.40
2022-12-01T11:21:10.042Z,84.80
2022-12-01T11:23:39.009Z,84.63
2022-12-01T11:26:11.606Z,84.68
2022-12-01T11:28:51.824Z,82.47
2022-12-01T11:31:20.570Z,82.78
2022-12-01T11:33:52.444Z,82.90
2022-12-01T11:36:22.245Z,83.63
2022-12-01T11:38:50.667Z,83.20
2022-12-01T11:41:28.438Z,82.40
2022-12-01T11:44:01.858Z,83.35
2022-12-01T11:46:33.695Z,82.43
2022-12-01T11:49:01.507Z,83.95
2022-12-01T11:51:32.079Z,81.95
2022-12-01T11:54:23.411Z,81.88
2022-12-01T11:57:17.477Z,82.65
2022-12-01T11:59:40.145Z,81.90
2022-12-01T12:02:21.150Z,82.70
2022-12-01T12:05:09.252Z,83.05
2022-12-01T12:07:50.017Z,82.80
2022-12-01T12:10:30.292Z,83.00
2022-12-01T12:13:10.003Z,82.80
2022-12-01T12:18:50.180Z,82.15
2022-12-01T12:21:28.185Z,82.57
2022-12-01T12:24:23.348Z,83.03
2022-12-01T12:26:56.687Z,81.68
2022-12-01T12:29:42.147Z,81.57
2022-12-01T12:32:28.102Z,81.72
2022-12-01T12:35:04.895Z,81.50
2022-12-01T12:37:42.522Z,81.88
2022-12-01T12:40:32.518Z,81.72
2022-12-01T12:43:13.634Z,82.25
2022-12-01T12:45:50.270Z,81.28
2022-12-01T12:48:28.822Z,80.80
2022-12-01T12:51:08.358Z,82.13
2022-12-01T12:53:41.890Z,83.50
2022-12-01T12:56:12.903Z,82.35
2022-12-01T12:58:47.483Z,82.30
2022-12-01T13:01:19.984Z,81.45
2022-12-01T13:03:55.891Z,81.93
2022-12-01T13:06:27.976Z,81.88
2022-12-01T13:09:00.918Z,81.45
2022-12-01T13:11:32.661Z,83.95
2022-12-01T13:14:06.481Z,84.25
2022-12-01T13:16:36.933Z,81.35
2022-12-01T13:19:12.507Z,80.83
2022-12-01T13:21:42.674Z,82.95
2022-12-01T13:24:12.614Z,81.43
2022-12-01T13:26:41.670Z,81.88
2022-12-01T13:29:14.476Z,83.70
2022-12-01T13:31:43.942Z,82.22
2022-12-01T13:34:21.289Z,81.53
2022-12-01T13:36:50.046Z,81.88
2022-12-01T13:39:20.629Z,81.28
2022-12-01T13:41:58.539Z,81.53
2022-12-01T13:44:30.118Z,83.20
2022-12-01T13:46:59.716Z,82.30
2022-12-01T13:49:40.451Z,82.32
2022-12-01T13:52:26.621Z,83.90
2022-12-01T13:55:18.483Z,82.20
2022-12-01T13:57:48.462Z,82.80
2022-12-01T14:00:24.691Z,81.40
2022-12-01T14:03:39.201Z,81.72
2022-12-01T14:06:19.516Z,81.85
2022-12-01T14:08:48.024Z,82.13
2022-12-01T14:11:22.626Z,81.75
2022-12-01T14:13:55.008Z,81.50
2022-12-01T14:16:22.782Z,82.00
2022-12-01T14:18:51.973Z,81.47
2022-12-01T14:21:41.130Z,82.00
2022-12-01T14:24:21.407Z,82.57
2022-12-01T14:26:49.224Z,82.85
2022-12-01T14:29:31.991Z,81.53
2022-12-01T14:32:25.857Z,82.13
2022-12-01T14:35:01.280Z,82.07
2022-12-01T14:37:37.379Z,82.22
2022-12-01T14:40:08.365Z,82.47
2022-12-01T14:42:56.855Z,81.90
2022-12-01T14:45:27.941Z,81.78
2022-12-01T14:48:01.999Z,81.97
2022-12-01T14:50:36.096Z,82.07
2022-12-01T14:53:15.676Z,82.47
2022-12-01T14:55:53.942Z,82.78
2022-12-01T14:58:23.911Z,82.47
2022-12-01T15:00:59.485Z,82.10
2022-12-01T15:03:32.193Z,84.18
2022-12-01T15:05:59.347Z,82.72
2022-12-01T15:09:03.947Z,82.22
2022-12-01T15:11:23.320Z,83.43
2022-12-01T15:13:51.822Z,82.93
2022-12-01T15:16:21.729Z,81.30
2022-12-01T15:18:49.142Z,82.22
2022-12-01T15:21:19.450Z,82.07
2022-12-01T15:23:55.800Z,82.07
2022-12-01T15:26:25.016Z,81.40
2022-12-01T15:29:05.013Z,81.95
2022-12-01T15:31:32.283Z,81.78
2022-12-01T15:33:59.520Z,80.95
2022-12-01T15:36:26.453Z,82.80
2022-12-01T15:38:54.833Z,81.85
2022-12-01T15:41:30.527Z,81.93
2022-12-01T15:44:00.461Z,81.95
2022-12-01T15:46:28.963Z,83.70
2022-12-01T15:49:07.631Z,82.38
2022-12-01T15:51:35.555Z,84.00
2022-12-01T15:54:04.448Z,83.18
2022-12-01T15:56:34.611Z,82.15
2022-12-01T15:59:07.733Z,81.40
2022-12-01T16:01:35.960Z,83.47
2022-12-01T16:04:05.599Z,83.63
2022-12-01T16:06:36.287Z,82.35
2022-12-01T16:09:06.852Z,82.25
2022-12-01T16:11:34.000Z,82.50
2022-12-01T16:14:04.258Z,82.90
2022-12-01T16:16:41.603Z,83.45
2022-12-01T16:19:27.030Z,82.88
2022-12-01T16:21:57.153Z,81.57
2022-12-01T16:24:29.635Z,81.32
2022-12-01T16:27:00.495Z,82.75
2022-12-01T16:29:29.778Z,81.82
2022-12-01T16:34:48.466Z,81.63
2022-12-01T16:37:16.030Z,81.65
2022-12-01T16:39:44.323Z,81.57
2022-12-01T16:42:13.667Z,82.50
2022-12-01T16:44:41.199Z,82.47
2022-12-01T16:47:16.808Z,82.30
2022-12-01T16:49:43.787Z,83.05
2022-12-01T16:54:59.774Z,83.60
2022-12-01T16:57:26.612Z,82.85
2022-12-01T16:59:53.444Z,82.57
2022-12-01T17:02:20.286Z,82.28
2022-12-01T17:04:47.319Z,84.05
2022-12-01T17:07:14.292Z,81.88
2022-12-01T17:09:41.083Z,82.25
2022-12-01T17:12:09.744Z,82.72
2022-12-01T17:14:36.572Z,82.05
2022-12-01T17:17:03.901Z,82.10
2022-12-01T17:19:30.669Z,82.13
2022-12-01T17:21:57.463Z,83.30
2022-12-01T17:24:25.908Z,81.15
2022-12-01T17:26:52.746Z,84.25
2022-12-01T17:29:20.934Z,83.22
2022-12-01T17:31:47.810Z,82.18
2022-12-01T17:34:15.684Z,82.03
2022-12-01T17:36:42.498Z,81.40
2022-12-01T17:39:09.306Z,82.57
2022-12-01T17:41:36.292Z,82.70
2022-12-01T17:44:03.820Z,82.57
2022-12-01T17:46:32.244Z,82.78
2022-12-01T17:49:00.763Z,82.97
2022-12-01T17:51:27.700Z,81.88
2022-12-01T17:53:54.863Z,82.00
2022-12-01T17:56:21.614Z,82.30
2022-12-01T17:58:50.363Z,82.95
2022-12-01T18:01:23.047Z,81.90
2022-12-01T18:03:53.642Z,81.18
2022-12-01T18:06:20.774Z,82.10
2022-12-01T18:08:47.739Z,81.82
2022-12-01T18:11:16.056Z,82.07
2022-12-01T18:13:44.703Z,82.10
2022-12-01T18:16:14.387Z,83.63
2022-12-01T18:18:41.306Z,83.25
2022-12-01T18:21:11.354Z,82.47
2022-12-01T18:23:38.511Z,81.97
2022-12-01T18:26:10.864Z,83.32
2022-12-01T18:28:42.780Z,83.22
2022-12-01T18:31:11.277Z,82.32
2022-12-01T18:33:40.328Z,81.85
2022-12-01T18:36:14.929Z,82.45
2022-12-01T18:38:41.891Z,81.97
2022-12-01T18:41:09.742Z,84.30
2022-12-01T18:43:36.862Z,82.70
2022-12-01T18:46:05.199Z,81.63
2022-12-01T18:48:32.709Z,82.68
2022-12-01T18:51:02.775Z,82.72
2022-12-01T18:53:31.165Z,82.13
2022-12-01T18:56:01.885Z,84.88
2022-12-01T18:58:28.821Z,81.70
2022-12-01T19:00:55.710Z,82.85
2022-12-01T19:03:22.608Z,82.70
2022-12-01T19:05:49.466Z,81.88
2022-12-01T19:08:16.501Z,83.00
2022-12-01T19:10:44.684Z,81.95
2022-12-01T19:13:11.498Z,82.68
2022-12-01T19:15:38.379Z,81.70
2022-12-01T19:18:05.364Z,82.45
2022-12-01T19:20:32.246Z,83.07
2022-12-01T19:22:59.514Z,82.50
2022-12-01T19:25:27.099Z,82.50
2022-12-01T19:27:55.277Z,83.18
2022-12-01T19:30:22.124Z,84.55
2022-12-01T19:32:48.913Z,82.35
2022-12-01T19:35:15.979Z,83.40
2022-12-01T19:37:42.883Z,83.88
2022-12-01T19:40:10.600Z,83.88
2022-12-01T19:42:37.362Z,82.32
2022-12-01T19:45:06.804Z,83.30
2022-12-01T19:47:34.681Z,83.30
2022-12-01T19:50:01.782Z,81.88
2022-12-01T19:52:28.760Z,84.72
2022-12-01T19:54:55.636Z,83.95
2022-12-01T19:57:22.449Z,82.15
2022-12-01T19:59:49.317Z,83.55
2022-12-01T20:02:17.589Z,82.47
2022-12-01T20:04:44.517Z,83.10
2022-12-01T20:07:11.299Z,81.57
2022-12-01T20:09:38.436Z,81.82
2022-12-01T20:12:05.516Z,82.90
2022-12-01T20:14:32.315Z,82.47
2022-12-01T20:16:59.278Z,83.00
2022-12-01T20:19:27.593Z,83.05
2022-12-01T20:21:54.420Z,82.68
2022-12-01T20:24:22.781Z,81.97
2022-12-01T20:26:51.800Z,82.43
2022-12-01T20:29:21.136Z,82.05
2022-12-01T20:31:49.083Z,85.63
2022-12-01T20:34:18.466Z,86.32
2022-12-01T20:36:47.345Z,82.57
2022-12-01T20:39:15.654Z,82.80
2022-12-01T20:41:43.543Z,86.53
2022-12-01T20:44:10.793Z,86.28
2022-12-01T20:46:38.388Z,84.15
2022-12-01T20:49:05.302Z,82.78
2022-12-01T20:51:33.487Z,83.18
2022-12-01T20:54:30.559Z,81.95
2022-12-01T20:56:49.157Z,82.72
2022-12-01T20:59:16.031Z,81.70
2022-12-01T21:01:42.902Z,81.40
2022-12-01T21:04:09.675Z,82.68
2022-12-01T21:06:36.509Z,81.65
2022-12-01T21:09:05.163Z,82.70
2022-12-01T21:11:53.948Z,82.18
2022-12-01T21:14:25.974Z,82.60
2022-12-01T21:16:57.059Z,81.18
2022-12-01T21:19:28.926Z,81.13
2022-12-01T21:21:55.886Z,81.85
2022-12-01T21:24:33.510Z,81.97
2022-12-01T21:27:12.369Z,81.53
2022-12-01T21:29:40.692Z,82.88
2022-12-01T21:32:13.337Z,81.32
2022-12-01T21:34:40.237Z,80.97
2022-12-01T21:37:12.457Z,84.32
2022-12-01T21:39:40.750Z,82.32
2022-12-01T21:42:15.908Z,82.53
2022-12-01T21:44:42.950Z,82.22
2022-12-01T21:47:17.670Z,82.22
2022-12-01T21:49:45.419Z,82.40
2022-12-01T21:52:16.751Z,82.38
2022-12-01T21:57:29.351Z,81.30
2022-12-01T22:00:06.050Z,82.15
2022-12-01T22:02:48.785Z,83.55
2022-12-01T22:05:27.875Z,81.80
2022-12-01T22:08:00.662Z,81.78
2022-12-01T22:11:04.566Z,81.75
2022-12-01T22:13:43.034Z,82.72
2022-12-01T22:16:16.296Z,81.43
2022-12-01T22:18:46.418Z,81.75
2022-12-01T22:21:36.823Z,82.32
2022-12-01T22:24:24.701Z,81.80
2022-12-01T22:27:10.026Z,82.50
2022-12-01T22:29:41.874Z,82.82
2022-12-01T22:32:35.586Z,83.63
2022-12-01T22:35:22.596Z,82.82
2022-12-01T22:37:51.224Z,82.22
2022-12-01T22:40:45.617Z,83.10
2022-12-01T22:43:26.567Z,81.38
2022-12-01T22:46:07.171Z,81.35
2022-12-01T22:48:37.488Z,82.30
2022-12-01T22:51:20.886Z,83.00
2022-12-01T22:53:48.820Z,82.28
2022-12-01T22:56:26.864Z,82.82
2022-12-01T22:58:56.258Z,82.63
2022-12-01T23:01:27.079Z,81.47
2022-12-01T23:04:07.980Z,81.13
2022-12-01T23:06:58.463Z,80.35
2022-12-01T23:09:29.404Z,81.38
2022-12-01T23:12:00.270Z,81.93
2022-12-01T23:14:29.067Z,81.65
2022-12-01T23:17:05.378Z,82.13
2022-12-01T23:19:32.436Z,84.03
2022-12-01T23:21:59.317Z,82.80
2022-12-01T23:24:29.693Z,82.35
2022-12-01T23:26:59.223Z,81.75
2022-12-01T23:29:25.987Z,82.10
2022-12-01T23:31:54.251Z,81.68
2022-12-01T23:34:21.089Z,83.30
2022-12-01T23:36:49.978Z,82.82
2022-12-01T23:39:18.841Z,82.43
2022-12-01T23:41:47.771Z,81.60
2022-12-01T23:44:20.549Z,82.80
2022-12-01T23:46:50.200Z,82.43
2022-12-01T23:49:21.033Z,82.05
2022-12-01T23:51:50.763Z,82.45
2022-12-01T23:54:20.591Z,81.63
2022-12-01T23:56:51.696Z,82.57
2022-12-01T23:59:19.720Z,82.70
